Time;durP1;ratioP1;P1;durP2;ratioP2;P2;SDS_P1;SDS_P2;PMS_P1;PMS_P2;Temp;Humidity;BMP_temperature;BMP_pressure;BME280_temperature;BME280_humidity;BME280_pressure;Samples;Min_cycle;Max_cycle;Signal;HPM_P1;HPM_P2
2022/01/13 00:01:08;;;;;;;215.93;41.20;;;4.80;99.90;;;;;;6123956;23;20301;-83
2022/01/13 00:03:33;;;;;;;211.05;40.22;;;4.90;99.90;;;;;;6099800;23;20026;-83
2022/01/13 00:05:59;;;;;;;211.23;41.33;;;4.80;99.90;;;;;;6124570;23;20018;-83
2022/01/13 00:08:25;;;;;;;169.77;35.45;;;4.90;99.90;;;;;;6100679;23;20544;-83
2022/01/13 00:10:51;;;;;;;187.98;37.47;;;4.90;99.90;;;;;;6125899;23;20026;-82
2022/01/13 00:13:24;;;;;;;219.05;38.53;;;4.90;99.90;;;;;;6100767;23;20030;-83
2022/01/13 00:16:11;;;;;;;212.25;39.65;;;4.90;99.90;;;;;;6075295;23;20018;-83
2022/01/13 00:18:48;;;;;;;238.95;40.38;;;4.90;99.90;;;;;;6099373;23;20105;-84
2022/01/13 00:21:28;;;;;;;240.68;40.72;;;4.90;99.90;;;;;;6078506;23;20076;-85
2022/01/13 00:23:55;;;;;;;207.77;36.78;;;4.90;99.90;;;;;;6078041;23;20432;-83
2022/01/13 00:26:26;;;;;;;182.68;35.22;;;4.90;99.90;;;;;;6130190;23;20528;-84
2022/01/13 00:29:08;;;;;;;190.23;35.92;;;4.90;99.90;;;;;;6071310;23;20030;-82
2022/01/13 00:31:38;;;;;;;180.90;34.40;;;4.90;99.90;;;;;;6064474;23;20086;-84
2022/01/13 00:34:06;;;;;;;226.43;40.28;;;4.90;99.90;;;;;;6040775;23;20110;-84
2022/01/13 00:36:36;;;;;;;189.52;34.97;;;4.90;99.90;;;;;;6064880;23;20026;-82
2022/01/13 00:39:04;;;;;;;148.73;31.00;;;5.00;99.90;;;;;;6040792;23;20090;-82
2022/01/13 00:41:31;;;;;;;175.63;34.22;;;5.00;99.90;;;;;;6042063;23;20022;-83
2022/01/13 00:44:20;;;;;;;191.10;35.00;;;5.00;99.90;;;;;;6045900;23;20363;-82
2022/01/13 00:46:55;;;;;;;218.40;38.25;;;5.00;99.90;;;;;;6065298;23;20359;-84
2022/01/13 00:49:22;;;;;;;178.10;37.10;;;5.00;99.90;;;;;;6040393;23;20093;-83
2022/01/13 00:51:48;;;;;;;162.10;35.47;;;5.00;99.90;;;;;;6040800;23;20027;-82
2022/01/13 00:54:28;;;;;;;175.45;38.00;;;5.00;99.90;;;;;;6062811;23;20499;-82
2022/01/13 00:56:54;;;;;;;209.95;40.78;;;5.00;99.90;;;;;;6041142;23;20027;-82
2022/01/13 00:59:20;;;;;;;200.23;39.42;;;5.00;99.90;;;;;;6077060;23;20017;-84
2022/01/13 01:01:49;;;;;;;164.40;34.63;;;4.90;99.90;;;;;;6099527;23;20054;-83
2022/01/13 01:04:16;;;;;;;176.75;37.53;;;4.90;99.90;;;;;;6125783;23;20346;-84
2022/01/13 01:06:42;;;;;;;145.00;32.83;;;4.90;99.90;;;;;;6123701;23;20018;-84
2022/01/13 01:09:40;;;;;;;146.48;33.17;;;4.80;99.90;;;;;;6079343;23;20029;-82
2022/01/13 01:12:09;;;;;;;142.60;33.65;;;4.80;99.90;;;;;;5994227;23;20019;-83
2022/01/13 01:14:40;;;;;;;168.15;34.75;;;4.70;99.90;;;;;;6015299;23;20024;-82
2022/01/13 01:17:06;;;;;;;165.73;34.15;;;4.70;99.90;;;;;;5991914;23;20023;-84
2022/01/13 01:19:32;;;;;;;213.48;38.42;;;4.70;99.90;;;;;;5990592;23;20030;-83
2022/01/13 01:27:24;;;;;;;172.55;35.60;;;4.60;99.90;;;;;;6014124;23;20023;-82
2022/01/13 01:29:57;;;;;;;172.15;35.90;;;4.60;99.90;;;;;;6013869;23;20090;-83
2022/01/13 01:32:24;;;;;;;264.83;43.70;;;4.60;99.90;;;;;;6013678;23;20023;-83
2022/01/13 01:34:56;;;;;;;239.32;41.53;;;4.70;99.90;;;;;;6013653;23;20032;-84
2022/01/13 01:37:28;;;;;;;222.68;42.42;;;4.70;99.90;;;;;;6037933;23;20023;-83
2022/01/13 01:39:56;;;;;;;220.68;39.83;;;4.80;99.90;;;;;;6013894;23;20102;-83
2022/01/13 01:42:25;;;;;;;194.38;38.15;;;4.80;99.90;;;;;;5991145;23;20118;-82
2022/01/13 01:45:01;;;;;;;175.70;36.88;;;4.80;99.90;;;;;;6014347;23;20023;-82
2022/01/13 01:47:30;;;;;;;190.80;37.72;;;4.90;99.90;;;;;;6014573;23;20463;-82
2022/01/13 01:50:01;;;;;;;222.02;42.35;;;4.90;99.90;;;;;;6014563;23;20027;-83
2022/01/13 01:52:29;;;;;;;219.23;44.70;;;4.90;99.90;;;;;;6014249;23;20467;-83
2022/01/13 01:54:55;;;;;;;240.73;44.38;;;4.80;99.90;;;;;;6053279;23;20022;-82
2022/01/13 01:57:22;;;;;;;265.50;44.95;;;4.90;99.90;;;;;;6129093;23;20423;-82
2022/01/13 01:59:49;;;;;;;230.98;45.28;;;4.90;99.90;;;;;;6106580;23;20046;-82
2022/01/13 02:02:27;;;;;;;236.55;45.03;;;4.80;99.90;;;;;;6078381;23;20022;-83
2022/01/13 02:04:54;;;;;;;185.10;37.58;;;4.90;99.90;;;;;;6076847;23;20018;-83
2022/01/13 02:07:29;;;;;;;244.85;44.55;;;4.90;99.90;;;;;;6103811;23;20025;-83
2022/01/13 02:09:55;;;;;;;244.90;44.20;;;4.90;99.90;;;;;;6124975;23;20413;-83
2022/01/13 02:12:35;;;;;;;192.90;40.22;;;4.90;99.90;;;;;;6100725;23;20468;-83
2022/01/13 02:15:28;;;;;;;309.40;49.55;;;4.90;99.90;;;;;;6077681;23;20092;-82
2022/01/13 02:17:53;;;;;;;251.70;41.55;;;4.90;99.90;;;;;;6102864;23;20323;-83
2022/01/13 02:20:19;;;;;;;280.95;46.33;;;5.00;99.90;;;;;;6077656;23;20057;-83
2022/01/13 02:22:45;;;;;;;209.10;41.65;;;5.00;99.90;;;;;;6076223;23;20027;-83
2022/01/13 02:25:16;;;;;;;195.63;42.60;;;5.00;99.90;;;;;;6126751;23;20026;-83
2022/01/13 02:27:43;;;;;;;269.05;48.92;;;5.00;99.90;;;;;;6101101;23;20477;-83
2022/01/13 02:30:09;;;;;;;263.65;49.33;;;5.00;99.90;;;;;;6125152;23;20032;-82
2022/01/13 02:32:35;;;;;;;224.52;46.55;;;5.00;99.90;;;;;;6099803;23;20097;-82
2022/01/13 02:35:01;;;;;;;217.93;46.88;;;5.00;99.90;;;;;;6126563;23;20476;-82
2022/01/13 02:37:30;;;;;;;251.90;47.00;;;5.10;99.90;;;;;;6078933;23;20450;-83
2022/01/13 02:39:56;;;;;;;233.25;48.88;;;5.10;99.90;;;;;;6078869;23;20101;-82
2022/01/13 02:42:22;;;;;;;215.77;47.20;;;5.10;99.90;;;;;;6082842;23;20100;-83
2022/01/13 02:45:02;;;;;;;265.60;51.45;;;5.10;99.90;;;;;;6125632;23;20026;-82
2022/01/13 02:50:22;;;;;;;237.55;47.63;;;5.10;99.90;;;;;;6067021;23;20023;-84
2022/01/13 02:52:47;;;;;;;254.35;48.95;;;5.10;99.90;;;;;;6042074;23;20067;-82
2022/01/13 02:55:13;;;;;;;251.43;49.83;;;5.10;99.90;;;;;;6065498;23;20026;-83
2022/01/13 02:57:39;;;;;;;228.32;47.55;;;5.10;99.90;;;;;;6065436;23;20058;-82
2022/01/13 03:00:08;;;;;;;227.30;46.58;;;5.10;99.90;;;;;;6065187;23;20459;-83
2022/01/13 03:02:48;;;;;;;198.43;43.63;;;5.20;99.90;;;;;;6041518;23;20074;-83
2022/01/13 03:05:15;;;;;;;198.00;42.60;;;5.20;99.90;;;;;;6041622;23;20117;-82
2022/01/13 03:07:41;;;;;;;223.27;43.03;;;5.20;99.90;;;;;;6065564;23;20034;-82
2022/01/13 03:10:09;;;;;;;194.40;42.88;;;5.20;99.90;;;;;;6065726;23;20027;-82
2022/01/13 03:12:36;;;;;;;224.75;44.50;;;5.20;99.90;;;;;;6041575;23;20027;-82
2022/01/13 03:15:18;;;;;;;213.77;44.08;;;5.10;99.90;;;;;;6041148;23;20023;-84
2022/01/13 03:17:44;;;;;;;216.98;43.60;;;5.20;99.90;;;;;;6065172;23;20027;-85
2022/01/13 03:20:10;;;;;;;203.65;42.90;;;5.10;99.90;;;;;;6065814;23;20019;-83
2022/01/13 03:22:36;;;;;;;208.48;42.15;;;5.10;99.90;;;;;;6066412;23;20046;-83
2022/01/13 03:25:23;;;;;;;207.40;44.03;;;5.10;99.90;;;;;;6067252;23;20028;-84
2022/01/13 03:27:56;;;;;;;292.08;48.40;;;5.10;99.90;;;;;;6090543;23;20026;-82
2022/01/13 03:30:24;;;;;;;196.95;39.60;;;5.10;99.90;;;;;;6080052;23;20022;-82
2022/01/13 03:32:49;;;;;;;225.90;45.33;;;5.10;99.90;;;;;;6098407;23;20426;-82
2022/01/13 03:35:24;;;;;;;227.55;42.08;;;5.00;99.90;;;;;;6071153;23;20493;-84
2022/01/13 03:38:08;;;;;;;304.17;51.72;;;5.00;99.90;;;;;;6097069;23;20021;-83
2022/01/13 03:40:35;;;;;;;246.05;46.53;;;5.00;99.90;;;;;;6096736;23;20402;-81
2022/01/13 03:43:02;;;;;;;203.07;41.50;;;5.00;99.90;;;;;;6096784;23;20030;-81
2022/01/13 03:45:28;;;;;;;225.63;42.33;;;4.90;99.90;;;;;;6070764;23;20026;-82
2022/01/13 03:47:56;;;;;;;175.20;38.58;;;4.90;99.90;;;;;;6096979;23;20366;-83
2022/01/13 03:50:22;;;;;;;229.35;43.92;;;4.90;99.90;;;;;;6071011;23;20023;-83
2022/01/13 03:53:02;;;;;;;175.25;39.10;;;4.90;99.90;;;;;;6094945;23;20179;-84
2022/01/13 03:55:38;;;;;;;217.35;42.30;;;4.90;99.90;;;;;;6095130;23;20109;-82
2022/01/13 03:58:23;;;;;;;213.88;41.47;;;4.90;99.90;;;;;;6048139;23;20526;-82
2022/01/13 04:01:26;;;;;;;188.98;37.20;;;4.90;99.90;;;;;;6096306;23;20053;-84
2022/01/13 04:03:52;;;;;;;242.85;42.97;;;4.90;99.90;;;;;;6047593;23;20638;-82
2022/01/13 04:06:17;;;;;;;184.10;37.25;;;4.90;99.90;;;;;;6070513;23;20095;-83
2022/01/13 04:08:49;;;;;;;183.82;42.10;;;4.90;99.90;;;;;;6050269;23;20071;-83
2022/01/13 04:11:26;;;;;;;194.00;43.28;;;4.90;99.90;;;;;;6074151;23;20030;-82
2022/01/13 04:14:00;;;;;;;203.63;45.22;;;4.90;99.90;;;;;;6049437;23;20097;-82
2022/01/13 04:16:36;;;;;;;173.93;43.45;;;5.00;99.90;;;;;;6094479;23;20068;-82
2022/01/13 04:19:05;;;;;;;171.55;43.90;;;5.00;99.90;;;;;;6094271;23;20054;-83
2022/01/13 04:21:38;;;;;;;207.52;44.03;;;5.00;99.90;;;;;;6023742;23;20347;-84
2022/01/13 04:24:19;;;;;;;187.65;46.28;;;5.00;99.90;;;;;;6000557;23;20099;-83
2022/01/13 04:26:47;;;;;;;170.75;42.90;;;5.00;99.90;;;;;;6094654;23;20034;-84
2022/01/13 04:31:41;;;;;;;163.45;41.28;;;5.10;99.90;;;;;;6094477;23;20026;-83
2022/01/13 04:34:07;;;;;;;160.88;42.65;;;5.20;99.90;;;;;;6094926;23;20113;-81
2022/01/13 04:36:34;;;;;;;158.13;42.95;;;5.20;99.90;;;;;;6071318;23;20022;-81
2022/01/13 04:39:00;;;;;;;156.30;43.38;;;5.20;99.90;;;;;;6072088;23;20026;-84
2022/01/13 04:41:32;;;;;;;179.80;44.33;;;5.30;99.90;;;;;;6046741;23;20107;-82
2022/01/13 04:44:00;;;;;;;156.63;42.50;;;5.30;99.90;;;;;;6070305;23;20065;-83
2022/01/13 04:46:26;;;;;;;202.88;49.05;;;5.30;99.90;;;;;;6070568;23;20022;-83
2022/01/13 04:48:52;;;;;;;193.73;47.05;;;5.40;99.90;;;;;;6096004;23;20026;-84
2022/01/13 04:51:21;;;;;;;183.15;44.92;;;5.40;99.90;;;;;;6096032;23;20031;-83
2022/01/13 04:53:46;;;;;;;172.10;43.72;;;5.30;99.90;;;;;;6094220;23;20473;-82
2022/01/13 04:56:25;;;;;;;203.43;49.00;;;5.30;99.90;;;;;;6071215;23;20036;-83
2022/01/13 04:58:58;;;;;;;226.25;46.97;;;5.30;99.90;;;;;;6100489;23;20337;-83
2022/01/13 05:01:24;;;;;;;207.43;45.28;;;5.20;99.90;;;;;;6103714;23;20041;-84
2022/01/13 05:03:50;;;;;;;228.05;49.10;;;5.20;99.90;;;;;;6074013;23;20022;-84
2022/01/13 05:06:19;;;;;;;214.95;46.20;;;5.20;99.90;;;;;;6070916;23;20029;-82
2022/01/13 05:08:45;;;;;;;212.73;46.33;;;5.20;99.90;;;;;;6071908;23;20026;-83
2022/01/13 05:11:11;;;;;;;216.18;48.00;;;5.10;99.90;;;;;;6047814;23;20058;-82
2022/01/13 05:13:37;;;;;;;268.60;49.42;;;5.10;99.90;;;;;;6094089;23;20022;-81
2022/01/13 05:16:03;;;;;;;218.35;46.63;;;5.10;99.90;;;;;;6096235;23;20102;-82
2022/01/13 05:21:37;;;;;;;185.43;43.22;;;5.10;99.90;;;;;;6035818;23;20028;-84
2022/01/13 05:24:03;;;;;;;218.20;47.45;;;5.10;99.90;;;;;;6011917;23;20020;-83
2022/01/13 05:26:29;;;;;;;199.77;45.03;;;5.20;99.90;;;;;;6011710;23;20023;-84
2022/01/13 05:28:55;;;;;;;174.73;44.95;;;5.20;99.90;;;;;;5988369;23;20471;-83
2022/01/13 05:31:21;;;;;;;177.70;43.90;;;5.20;99.90;;;;;;6011601;23;20028;-83
2022/01/13 05:33:47;;;;;;;182.63;44.90;;;5.20;99.90;;;;;;6011999;23;20023;-84
2022/01/13 05:36:13;;;;;;;167.25;45.95;;;5.30;99.90;;;;;;6011852;23;20109;-83
2022/01/13 05:38:42;;;;;;;189.50;43.67;;;5.30;99.90;;;;;;5989347;23;20023;-83
2022/01/13 05:41:08;;;;;;;168.82;42.58;;;5.30;99.90;;;;;;6037357;23;20032;-84
2022/01/13 05:43:34;;;;;;;165.30;42.10;;;5.30;99.90;;;;;;6014802;23;20024;-82
2022/01/13 05:46:00;;;;;;;158.93;43.00;;;5.30;99.90;;;;;;6019334;23;20027;-82
2022/01/13 05:48:26;;;;;;;147.00;41.45;;;5.30;99.90;;;;;;6020441;23;20029;-83
2022/01/13 05:50:51;;;;;;;175.63;44.90;;;5.40;99.90;;;;;;6013247;23;20027;-82
2022/01/13 05:53:17;;;;;;;186.35;46.10;;;5.30;99.90;;;;;;6040336;23;20028;-82
2022/01/13 05:55:43;;;;;;;169.05;45.95;;;5.30;99.90;;;;;;6070277;23;20023;-81
2022/01/13 05:58:09;;;;;;;176.85;45.40;;;5.30;99.90;;;;;;6096450;23;20405;-83
2022/01/13 06:00:36;;;;;;;172.68;45.00;;;5.40;99.90;;;;;;6095701;23;20101;-82
2022/01/13 06:03:06;;;;;;;172.40;44.58;;;5.40;99.90;;;;;;6047840;23;20022;-82
2022/01/13 06:05:33;;;;;;;177.18;45.67;;;5.40;99.90;;;;;;6048029;23;20026;-81
2022/01/13 06:07:59;;;;;;;171.95;46.75;;;5.40;99.90;;;;;;6095890;23;20018;-81
2022/01/13 06:10:30;;;;;;;166.68;47.08;;;5.40;99.90;;;;;;6095970;23;20031;-82
2022/01/13 06:12:56;;;;;;;169.73;45.58;;;5.50;99.90;;;;;;6048351;23;20061;-82
2022/01/13 06:15:24;;;;;;;149.55;43.22;;;5.50;99.90;;;;;;6073044;23;20041;-82
2022/01/13 06:17:52;;;;;;;167.43;45.42;;;5.50;99.90;;;;;;6097426;23;20398;-82
2022/01/13 06:20:19;;;;;;;160.45;44.63;;;5.50;99.90;;;;;;6097090;23;20018;-82
2022/01/13 06:22:46;;;;;;;149.75;41.05;;;5.60;99.90;;;;;;6071186;23;20429;-83
2022/01/13 06:25:14;;;;;;;156.75;43.00;;;5.60;99.90;;;;;;6097163;23;20071;-82
2022/01/13 06:27:40;;;;;;;162.35;44.40;;;5.60;99.90;;;;;;6071878;23;20023;-83
2022/01/13 06:30:08;;;;;;;141.38;41.65;;;5.60;99.90;;;;;;6074832;23;20085;-83
2022/01/13 06:32:34;;;;;;;135.25;42.63;;;5.60;99.90;;;;;;6075141;23;20058;-83
2022/01/13 06:35:00;;;;;;;133.35;41.95;;;5.70;99.90;;;;;;6096623;23;20022;-81
2022/01/13 06:37:26;;;;;;;137.38;40.38;;;5.70;99.90;;;;;;6096436;23;20057;-82
2022/01/13 06:39:52;;;;;;;167.40;47.22;;;5.70;99.90;;;;;;6097863;23;20447;-83
2022/01/13 06:42:18;;;;;;;167.02;44.88;;;5.70;99.90;;;;;;6071987;23;20101;-81
2022/01/13 06:44:44;;;;;;;145.93;43.55;;;5.70;99.90;;;;;;6095680;23;20019;-81
2022/01/13 06:47:11;;;;;;;141.18;41.97;;;5.70;99.90;;;;;;6097622;23;20026;-82
2022/01/13 06:49:38;;;;;;;140.88;42.20;;;5.80;99.90;;;;;;6071910;23;20022;-83
2022/01/13 06:52:09;;;;;;;139.88;40.90;;;5.80;99.90;;;;;;6095570;23;20025;-82
2022/01/13 06:54:35;;;;;;;136.27;41.75;;;5.80;99.90;;;;;;6071404;23;20525;-83
2022/01/13 06:57:01;;;;;;;135.90;40.72;;;5.80;99.90;;;;;;6095416;23;20022;-83
2022/01/13 06:59:27;;;;;;;120.38;40.63;;;5.80;99.90;;;;;;6097196;23;20022;-82
2022/01/13 07:01:53;;;;;;;125.20;40.97;;;5.80;99.90;;;;;;6070678;23;20034;-81
2022/01/13 07:04:24;;;;;;;116.65;39.25;;;5.80;99.90;;;;;;6071153;23;20537;-82
2022/01/13 07:06:54;;;;;;;119.05;37.55;;;5.80;99.90;;;;;;6024038;23;20019;-82
2022/01/13 07:09:21;;;;;;;105.97;37.38;;;5.80;99.90;;;;;;6024146;23;20033;-82
2022/01/13 07:11:48;;;;;;;101.25;36.78;;;5.80;99.90;;;;;;6071676;23;20462;-82
2022/01/13 07:14:17;;;;;;;113.88;38.53;;;5.70;99.90;;;;;;6072713;23;20089;-84
2022/01/13 07:16:45;;;;;;;101.90;38.33;;;5.70;99.90;;;;;;6104520;23;20046;-82
2022/01/13 07:19:12;;;;;;;112.03;37.67;;;5.70;99.90;;;;;;6103338;23;20407;-84
2022/01/13 07:21:40;;;;;;;96.97;35.50;;;5.70;99.90;;;;;;6047702;23;20062;-83
2022/01/13 07:24:06;;;;;;;104.07;37.45;;;5.60;99.90;;;;;;6046581;23;20022;-83
2022/01/13 07:26:33;;;;;;;100.22;35.00;;;5.60;99.90;;;;;;6067129;23;20026;-83
2022/01/13 07:28:59;;;;;;;97.38;36.20;;;5.50;99.90;;;;;;6070847;23;20340;-81
2022/01/13 07:31:25;;;;;;;97.85;37.85;;;5.50;99.90;;;;;;6047077;23;20030;-81
2022/01/13 07:34:09;;;;;;;105.47;36.05;;;5.50;99.90;;;;;;6094973;23;20026;-82
2022/01/13 07:36:40;;;;;;;110.85;35.90;;;5.50;99.90;;;;;;6071353;23;20022;-83
2022/01/13 07:39:08;;;;;;;105.75;37.88;;;5.50;99.90;;;;;;6094042;23;20022;-82
2022/01/13 07:41:36;;;;;;;120.45;38.17;;;5.50;99.90;;;;;;6071794;23;20398;-83
2022/01/13 07:44:03;;;;;;;118.45;37.88;;;5.50;99.90;;;;;;6071243;23;20026;-82
2022/01/13 07:46:29;;;;;;;127.30;41.97;;;5.50;99.90;;;;;;6071548;23;20022;-83
2022/01/13 07:48:55;;;;;;;122.13;38.72;;;5.50;99.90;;;;;;6096772;23;20041;-81
2022/01/13 07:51:20;;;;;;;121.00;40.33;;;5.50;99.90;;;;;;6072025;23;20023;-83
2022/01/13 07:53:46;;;;;;;127.13;39.88;;;5.50;99.90;;;;;;6047547;23;20349;-80
2022/01/13 07:56:12;;;;;;;141.45;42.35;;;5.60;99.90;;;;;;6048846;23;20030;-84
2022/01/13 07:58:40;;;;;;;138.52;41.28;;;5.60;99.90;;;;;;6048645;23;20331;-83
2022/01/13 08:01:06;;;;;;;139.75;41.90;;;5.60;99.90;;;;;;6048608;23;20493;-82
2022/01/13 08:03:32;;;;;;;163.35;44.30;;;5.60;99.90;;;;;;6071185;23;20037;-81
2022/01/13 08:06:00;;;;;;;170.13;44.42;;;5.60;99.90;;;;;;6071906;23;20018;-82
2022/01/13 08:08:26;;;;;;;182.73;46.45;;;5.60;99.90;;;;;;6098236;23;20027;-81
2022/01/13 08:10:52;;;;;;;164.60;43.90;;;5.70;99.90;;;;;;6077211;23;20025;-82
2022/01/13 08:13:18;;;;;;;170.25;46.38;;;5.70;99.90;;;;;;6075533;23;20037;-82
2022/01/13 08:15:44;;;;;;;167.65;45.00;;;5.70;99.90;;;;;;6070466;23;20051;-81
2022/01/13 08:21:26;;;;;;;;;;;5.70;99.90;;;;;;6065566;23;20018;-82
2022/01/13 08:24:11;;;;;;;157.85;42.42;;;5.70;99.90;;;;;;6040726;23;20005;-82
2022/01/13 08:26:45;;;;;;;159.00;42.90;;;5.70;99.90;;;;;;6040837;23;20534;-82
2022/01/13 08:29:13;;;;;;;134.38;38.92;;;5.80;99.90;;;;;;6040833;23;20023;-83
2022/01/13 08:31:39;;;;;;;143.48;40.08;;;5.80;99.90;;;;;;6064832;23;20023;-82
2022/01/13 08:34:06;;;;;;;139.05;41.35;;;5.80;99.90;;;;;;6064724;23;20163;-81
2022/01/13 08:36:37;;;;;;;139.27;40.65;;;5.80;99.90;;;;;;6040615;23;20048;-82
2022/01/13 08:39:07;;;;;;;163.30;43.58;;;5.80;99.90;;;;;;6041101;23;20023;-82
2022/01/13 08:41:33;;;;;;;162.10;45.03;;;5.90;99.90;;;;;;6042745;23;20086;-82
2022/01/13 08:43:59;;;;;;;177.75;45.03;;;5.90;99.90;;;;;;6066205;23;20030;-82
2022/01/13 08:46:26;;;;;;;160.30;45.65;;;5.90;99.90;;;;;;6064865;23;20030;-82
2022/01/13 08:48:53;;;;;;;162.35;45.25;;;6.00;99.90;;;;;;6064690;23;20094;-82
2022/01/13 08:51:19;;;;;;;192.68;50.42;;;6.00;99.90;;;;;;6045528;23;20111;-81
2022/01/13 08:53:46;;;;;;;235.10;53.45;;;6.00;99.90;;;;;;6096305;23;20064;-82
2022/01/13 08:56:13;;;;;;;206.57;51.28;;;6.10;99.90;;;;;;6070846;23;20022;-82
2022/01/13 08:58:39;;;;;;;201.07;50.78;;;6.00;99.90;;;;;;6070330;23;20085;-82
2022/01/13 09:01:04;;;;;;;197.23;51.28;;;6.10;99.90;;;;;;6070830;23;20497;-83
2022/01/13 09:03:30;;;;;;;213.98;49.10;;;6.10;99.90;;;;;;6096457;23;20023;-82
2022/01/13 09:05:56;;;;;;;227.43;52.42;;;6.10;99.90;;;;;;6097163;23;20023;-82
2022/01/13 09:08:22;;;;;;;243.40;54.67;;;6.10;99.90;;;;;;6072290;23;20027;-83
2022/01/13 09:10:47;;;;;;;239.82;54.40;;;6.20;99.90;;;;;;6077061;23;20030;-83
2022/01/13 09:13:16;;;;;;;251.00;54.88;;;6.20;99.90;;;;;;6070219;23;20074;-83
2022/01/13 09:16:00;;;;;;;204.85;49.15;;;6.20;99.90;;;;;;6072854;23;20029;-82
2022/01/13 09:18:59;;;;;;;254.40;53.45;;;6.20;99.90;;;;;;6067344;23;20488;-83
2022/01/13 09:21:27;;;;;;;262.67;51.75;;;6.20;99.90;;;;;;6071026;23;20366;-82
2022/01/13 09:23:54;;;;;;;243.60;50.15;;;6.30;99.90;;;;;;6046643;23;20030;-82
2022/01/13 09:26:20;;;;;;;257.42;48.17;;;6.30;99.90;;;;;;6046796;23;20026;-82
2022/01/13 09:28:49;;;;;;;206.00;44.53;;;6.30;99.90;;;;;;6035437;23;20023;-82
2022/01/13 09:31:15;;;;;;;264.45;51.28;;;6.40;99.90;;;;;;6036296;23;20496;-82
2022/01/13 09:33:40;;;;;;;220.35;47.03;;;6.40;99.90;;;;;;6037671;23;20028;-81
2022/01/13 09:36:07;;;;;;;229.65;45.55;;;6.30;99.90;;;;;;5990195;23;20023;-80
2022/01/13 09:38:33;;;;;;;217.60;45.33;;;6.40;99.90;;;;;;6013870;23;20027;-82
2022/01/13 09:40:59;;;;;;;259.42;49.00;;;6.40;99.90;;;;;;6013737;23;20027;-83
2022/01/13 09:43:44;;;;;;;246.18;48.80;;;6.40;99.90;;;;;;5990403;23;20079;-83
2022/01/13 09:46:11;;;;;;;;;;;6.40;99.90;;;;;;5967659;23;20031;-82
2022/01/13 09:48:41;;;;;;;217.43;48.35;;;6.50;99.90;;;;;;6013459;23;20048;-82
2022/01/13 09:51:10;;;;;;;239.98;51.35;;;6.50;99.90;;;;;;6014646;23;20019;-82
2022/01/13 09:53:36;;;;;;;210.70;47.50;;;6.50;99.90;;;;;;6038611;23;20083;-82
2022/01/13 09:56:04;;;;;;;213.50;47.80;;;6.50;99.90;;;;;;5994437;23;20070;-86
2022/01/13 09:58:34;;;;;;;204.43;47.50;;;6.50;99.90;;;;;;6018210;23;20083;-82
2022/01/13 10:01:03;;;;;;;186.63;47.83;;;6.60;99.90;;;;;;6073824;23;20446;-82
2022/01/13 10:03:29;;;;;;;169.50;45.20;;;6.60;99.90;;;;;;6051579;23;20350;-83
2022/01/13 10:05:58;;;;;;;185.30;48.78;;;6.60;99.90;;;;;;6071814;23;20030;-82
2022/01/13 10:08:57;;;;;;;144.68;44.28;;;6.60;99.90;;;;;;6071896;23;20069;-82
2022/01/13 10:11:27;;;;;;;187.73;51.22;;;6.60;99.90;;;;;;6072028;23;20085;-81
2022/01/13 10:16:59;;;;;;;134.45;42.95;;;6.60;99.90;;;;;;6072397;23;19917;-83
2022/01/13 10:19:35;;;;;;;132.02;42.03;;;6.60;99.90;;;;;;5990590;23;20062;-83
2022/01/13 10:22:33;;;;;;;141.27;44.28;;;6.60;99.90;;;;;;5989994;23;20027;-82
2022/01/13 10:25:00;;;;;;;141.02;42.85;;;6.60;99.90;;;;;;5989644;23;20019;-82
2022/01/13 10:27:32;;;;;;;112.88;42.22;;;6.70;99.90;;;;;;5989879;23;20063;-82
2022/01/13 10:30:14;;;;;;;119.90;41.58;;;6.60;99.90;;;;;;6013018;23;20082;-82
2022/01/13 10:33:33;;;;;;;120.65;42.63;;;6.60;99.90;;;;;;6011851;23;20102;-82
2022/01/13 10:36:27;;;;;;;100.15;38.92;;;6.60;99.90;;;;;;6019901;23;20062;-82
2022/01/13 10:38:56;;;;;;;110.55;37.10;;;6.70;99.90;;;;;;5959174;24;20028;-81
2022/01/13 10:44:23;;;;;;;85.72;32.67;;;6.60;99.90;;;;;;5958785;24;20080;-84
2022/01/13 10:47:17;;;;;;;89.30;33.08;;;6.70;99.90;;;;;;5962134;24;20024;-82
2022/01/13 10:49:47;;;;;;;95.45;35.83;;;6.60;99.90;;;;;;5970015;23;20047;-82
2022/01/13 10:52:45;;;;;;;88.47;33.97;;;6.70;99.90;;;;;;5980694;24;20028;-83
2022/01/13 10:55:23;;;;;;;89.30;34.35;;;6.60;99.90;;;;;;5957184;24;20032;-83
2022/01/13 10:57:56;;;;;;;78.05;31.10;;;6.60;99.90;;;;;;5957404;24;20028;-83
2022/01/13 11:00:24;;;;;;;87.70;32.03;;;6.70;99.90;;;;;;5956619;24;20032;-82
2022/01/13 11:03:01;;;;;;;81.80;32.20;;;6.60;99.90;;;;;;5934641;24;20024;-83
2022/01/13 11:05:28;;;;;;;86.30;33.38;;;6.70;99.90;;;;;;5957171;24;20029;-82
2022/01/13 11:07:57;;;;;;;83.35;31.02;;;6.60;99.90;;;;;;5956768;24;20028;-82
2022/01/13 11:10:23;;;;;;;78.40;30.48;;;6.60;99.90;;;;;;5998241;23;20031;-81
2022/01/13 11:12:56;;;;;;;84.22;31.05;;;6.60;99.90;;;;;;6013120;23;20460;-82
2022/01/13 11:15:25;;;;;;;82.97;28.95;;;6.70;99.90;;;;;;6012385;23;20110;-82
2022/01/13 11:17:54;;;;;;;75.82;28.83;;;6.70;99.90;;;;;;5989589;23;20083;-82
2022/01/13 11:20:22;;;;;;;84.13;28.27;;;6.60;99.90;;;;;;6013290;23;20027;-82
2022/01/13 11:22:52;;;;;;;77.53;28.33;;;6.60;99.90;;;;;;6031302;23;20454;-83
2022/01/13 11:25:23;;;;;;;71.95;27.85;;;6.60;99.90;;;;;;6120689;23;20442;-83
2022/01/13 11:27:51;;;;;;;73.18;28.45;;;6.70;99.90;;;;;;6069513;23;20026;-83
2022/01/13 11:30:21;;;;;;;74.40;28.00;;;6.70;99.90;;;;;;6095695;23;20109;-82
2022/01/13 11:32:48;;;;;;;69.38;26.00;;;6.70;99.90;;;;;;6103600;23;20067;-83
2022/01/13 11:35:21;;;;;;;69.57;26.30;;;6.70;99.90;;;;;;6099060;23;20030;-82
2022/01/13 11:37:56;;;;;;;72.18;27.38;;;6.70;99.90;;;;;;6057825;23;20366;-84
2022/01/13 11:40:33;;;;;;;79.13;26.50;;;6.70;99.90;;;;;;6034171;23;20027;-83
2022/01/13 11:43:02;;;;;;;81.03;28.65;;;6.70;99.90;;;;;;6072317;23;20101;-82
2022/01/13 11:45:28;;;;;;;77.38;28.38;;;6.70;99.90;;;;;;6024905;23;20019;-81
2022/01/13 11:48:19;;;;;;;80.18;29.48;;;6.70;99.90;;;;;;6071740;23;20081;-83
2022/01/13 11:50:52;;;;;;;79.93;30.00;;;6.70;99.90;;;;;;6071407;23;20417;-82
2022/01/13 11:53:31;;;;;;;84.70;30.77;;;6.70;99.90;;;;;;6072474;23;20480;-83
2022/01/13 11:56:01;;;;;;;76.28;28.98;;;6.70;99.90;;;;;;6047547;23;20478;-84
2022/01/13 11:58:33;;;;;;;95.35;32.13;;;6.70;99.90;;;;;;6095659;23;20529;-82
2022/01/13 12:01:21;;;;;;;85.90;29.95;;;6.70;99.90;;;;;;6025194;23;20049;-83
2022/01/13 12:03:50;;;;;;;78.72;30.00;;;6.80;99.90;;;;;;6072754;23;20026;-84
2022/01/13 12:06:42;;;;;;;82.93;30.45;;;6.90;99.90;;;;;;6073153;23;20023;-82
2022/01/13 12:09:31;;;;;;;81.55;30.98;;;6.90;99.90;;;;;;6047740;23;20033;-82
2022/01/13 12:11:58;;;;;;;79.57;31.20;;;6.90;99.90;;;;;;6050734;23;20488;-84
2022/01/13 12:14:30;;;;;;;90.50;29.40;;;7.00;99.90;;;;;;6070561;23;20158;-84
2022/01/13 12:17:30;;;;;;;68.85;26.15;;;7.00;99.90;;;;;;6071086;23;20407;-83
2022/01/13 12:20:03;;;;;;;65.03;24.20;;;7.00;99.90;;;;;;6070362;23;20030;-82
2022/01/13 12:22:37;;;;;;;62.92;25.27;;;7.10;99.90;;;;;;6071121;23;20101;-83
2022/01/13 12:25:09;;;;;;;73.38;27.13;;;7.20;99.90;;;;;;6095909;23;20038;-83
2022/01/13 12:27:41;;;;;;;69.00;25.20;;;7.20;99.90;;;;;;6047721;23;20483;-82
2022/01/13 12:30:32;;;;;;;56.45;23.98;;;7.30;99.90;;;;;;6095810;23;20434;-81
2022/01/13 12:33:03;;;;;;;60.78;23.08;;;7.40;99.90;;;;;;6075000;23;20026;-82
2022/01/13 12:35:30;;;;;;;58.42;22.55;;;7.40;99.90;;;;;;6075620;23;20394;-83
2022/01/13 12:38:17;;;;;;;54.22;22.48;;;7.50;99.90;;;;;;6101559;23;20489;-82
2022/01/13 12:41:02;;;;;;;42.65;19.23;;;7.50;99.90;;;;;;6072868;23;20033;-82
2022/01/13 12:46:03;;;;;;;50.22;17.75;;;7.50;99.90;;;;;;6071666;23;19929;-83
2022/01/13 12:48:50;;;;;;;41.83;18.70;;;7.50;99.90;;;;;;6051498;23;20033;-84
2022/01/13 12:51:25;;;;;;;38.28;17.13;;;7.60;99.90;;;;;;6070223;23;20027;-83
2022/01/13 12:53:51;;;;;;;51.15;19.50;;;7.60;99.90;;;;;;6096371;23;20450;-83
2022/01/13 12:56:24;;;;;;;43.25;18.63;;;7.60;99.90;;;;;;6070224;23;20082;-83
2022/01/13 12:58:54;;;;;;;45.20;17.92;;;7.70;99.90;;;;;;6070243;23;20022;-83
2022/01/13 13:01:43;;;;;;;44.63;16.85;;;7.70;99.90;;;;;;6023179;23;20026;-83
2022/01/13 13:04:10;;;;;;;48.70;16.65;;;7.70;99.90;;;;;;6069511;23;20022;-84
2022/01/13 13:06:43;;;;;;;45.45;15.70;;;7.70;99.90;;;;;;6097738;23;20481;-84
2022/01/13 13:09:12;;;;;;;42.95;16.70;;;7.90;99.90;;;;;;6072761;23;20073;-83
2022/01/13 13:11:48;;;;;;;37.05;14.60;;;8.00;99.90;;;;;;6072565;23;20083;-83
2022/01/13 13:14:22;;;;;;;43.38;15.13;;;8.10;99.90;;;;;;6049869;23;20160;-83